Terminal Aerodrome Forecast
Issued by NWS Mt. Holly, NJ

Home | Current Version | Previous Version | Text Only | Print | Product List | Glossary On
Versions: 1 2 3 4 5 6 7 8 9 10 11 12 13 14 15 16 17 18 19 20 21 22 23
059
FTUS41 KPHI 180907 AAB
TAFACY
TAF AMD
KACY 180907Z 1809/1906 30012KT P6SM OVC006
      TEMPO 1809/1811 SCT006 OVC010
     FM181100 29009KT P6SM BKN020
     FM181200 29012KT P6SM BKN045
     FM181900 30006KT P6SM SKC
     FM182300 VRB02KT P6SM SKC=

USA.gov is the U.S. government's official web portal to all federal, state and local government web resources and services.